createdAt,value
2018-10-05T00:00:33.362Z,0.00
2018-10-05T00:01:33.341Z,0.00
2018-10-05T00:02:33.328Z,0.00
2018-10-05T00:03:33.316Z,0.00
2018-10-05T00:04:33.308Z,0.00
2018-10-05T00:05:33.289Z,0.00
2018-10-05T00:06:33.284Z,0.00
2018-10-05T00:07:33.277Z,0.00
2018-10-05T00:08:33.283Z,0.00
2018-10-05T00:09:33.246Z,0.00
2018-10-05T00:10:33.236Z,0.00
2018-10-05T00:11:33.265Z,0.00
2018-10-05T00:12:33.253Z,0.00
2018-10-05T00:13:33.203Z,0.00
2018-10-05T00:14:33.193Z,0.00
2018-10-05T00:15:33.187Z,0.00
2018-10-05T00:16:33.179Z,0.00
2018-10-05T00:17:33.175Z,0.00
2018-10-05T00:18:33.175Z,0.00
2018-10-05T00:19:33.150Z,0.00
2018-10-05T00:20:33.263Z,0.00
2018-10-05T00:21:33.119Z,0.00
2018-10-05T00:22:33.109Z,0.00
2018-10-05T00:23:33.102Z,0.00
2018-10-05T00:24:33.083Z,0.00
2018-10-05T00:25:33.074Z,0.00
2018-10-05T00:26:33.145Z,0.00
2018-10-05T00:27:33.078Z,0.00
2018-10-05T00:28:33.061Z,0.00
2018-10-05T00:29:33.042Z,0.00
2018-10-05T00:30:33.036Z,0.00
2018-10-05T00:31:33.014Z,0.00
2018-10-05T00:32:33.030Z,0.00
2018-10-05T00:33:33.036Z,0.00
2018-10-05T00:34:32.986Z,0.00
2018-10-05T00:35:32.969Z,0.00
2018-10-05T00:36:32.956Z,0.00
2018-10-05T00:37:32.945Z,0.00
2018-10-05T00:38:32.946Z,0.00
2018-10-05T00:39:32.925Z,0.00
2018-10-05T00:40:32.957Z,0.00
2018-10-05T00:41:32.919Z,0.00
2018-10-05T00:42:32.918Z,0.00
2018-10-05T00:43:32.931Z,0.00
2018-10-05T00:44:32.898Z,0.00
2018-10-05T00:45:32.863Z,0.00
2018-10-05T00:46:32.855Z,0.00
2018-10-05T00:47:32.866Z,0.00
2018-10-05T00:48:32.859Z,0.00
2018-10-05T00:49:32.830Z,0.00
2018-10-05T00:50:32.808Z,0.00
2018-10-05T00:51:32.801Z,0.00
2018-10-05T00:52:32.794Z,0.00
2018-10-05T00:53:32.859Z,0.00
2018-10-05T00:54:32.865Z,0.00
2018-10-05T00:55:32.762Z,0.00
2018-10-05T00:56:32.793Z,0.00
2018-10-05T00:57:32.747Z,0.00
2018-10-05T00:58:32.741Z,0.00
2018-10-05T00:59:32.766Z,0.00
2018-10-05T01:00:32.700Z,0.00
2018-10-05T01:01:32.702Z,0.00
2018-10-05T01:02:32.689Z,0.00
2018-10-05T01:03:32.670Z,0.00
2018-10-05T01:04:32.668Z,0.00
2018-10-05T01:05:32.659Z,0.00
2018-10-05T01:06:32.647Z,0.00
2018-10-05T01:07:32.634Z,0.00
2018-10-05T01:08:32.622Z,0.00
2018-10-05T01:09:32.613Z,0.00
2018-10-05T01:10:32.607Z,0.00
2018-10-05T01:11:32.673Z,0.00
2018-10-05T01:12:32.577Z,0.00
2018-10-05T01:13:32.565Z,0.00
2018-10-05T01:14:32.553Z,0.00
2018-10-05T01:15:32.563Z,0.00
2018-10-05T01:16:32.541Z,0.00
2018-10-05T01:17:32.617Z,0.00
2018-10-05T01:18:32.515Z,0.00
2018-10-05T01:19:32.538Z,0.00
2018-10-05T01:20:32.496Z,0.00
2018-10-05T01:21:32.499Z,0.00
2018-10-05T01:22:32.480Z,0.00
2018-10-05T01:23:32.485Z,0.00
2018-10-05T01:24:32.457Z,0.00
2018-10-05T01:25:32.441Z,0.00
2018-10-05T01:26:32.454Z,0.00
2018-10-05T01:27:32.417Z,0.00
2018-10-05T01:28:32.408Z,0.00
2018-10-05T01:29:32.400Z,0.00
2018-10-05T01:30:32.393Z,0.00
2018-10-05T01:31:32.390Z,0.00
2018-10-05T01:32:32.368Z,0.00
2018-10-05T01:33:32.368Z,0.00
2018-10-05T01:34:32.366Z,0.00
2018-10-05T01:35:32.343Z,0.00
2018-10-05T01:36:32.323Z,0.00
2018-10-05T01:37:32.324Z,0.00
2018-10-05T01:38:32.316Z,0.00
2018-10-05T01:39:32.296Z,0.00
2018-10-05T01:40:32.280Z,0.00
2018-10-05T01:41:32.281Z,0.00
2018-10-05T01:42:32.269Z,0.00
2018-10-05T01:43:32.246Z,0.00
2018-10-05T01:44:32.236Z,0.00
2018-10-05T01:45:32.236Z,0.00
2018-10-05T01:46:32.223Z,0.00
2018-10-05T01:47:32.229Z,0.00
2018-10-05T01:48:32.196Z,0.00
2018-10-05T01:49:32.188Z,0.00
2018-10-05T01:50:32.180Z,0.00
2018-10-05T01:51:32.172Z,0.00
2018-10-05T01:52:32.162Z,0.00
2018-10-05T01:53:32.156Z,0.00
2018-10-05T01:54:32.153Z,0.00
2018-10-05T01:55:32.123Z,0.00
2018-10-05T01:56:32.114Z,0.00
2018-10-05T01:57:32.119Z,0.00
2018-10-05T01:58:32.107Z,0.00
2018-10-05T01:59:32.092Z,0.00
2018-10-05T02:00:32.068Z,0.00
2018-10-05T02:01:32.057Z,0.00
2018-10-05T02:02:32.086Z,0.00
2018-10-05T02:03:32.056Z,0.00
2018-10-05T02:04:32.026Z,0.00
2018-10-05T02:05:32.017Z,0.00
2018-10-05T02:06:32.008Z,0.00
2018-10-05T02:07:32.000Z,0.00
2018-10-05T02:08:31.997Z,0.00
2018-10-05T02:09:32.003Z,0.00
2018-10-05T02:10:31.970Z,0.00
2018-10-05T02:11:31.968Z,0.00
2018-10-05T02:12:31.945Z,0.00
2018-10-05T02:13:31.952Z,0.00
2018-10-05T02:14:31.934Z,0.00
2018-10-05T02:15:31.913Z,0.00
2018-10-05T02:16:31.906Z,0.00
2018-10-05T02:17:31.887Z,0.00
2018-10-05T02:18:31.919Z,0.00
2018-10-05T02:19:31.897Z,0.00
2018-10-05T02:20:31.865Z,0.00
2018-10-05T02:21:31.847Z,0.00
2018-10-05T02:22:31.844Z,0.00
2018-10-05T02:23:31.833Z,0.00
2018-10-05T02:24:31.833Z,0.00
2018-10-05T02:25:31.808Z,0.00
2018-10-05T02:26:31.811Z,0.00
2018-10-05T02:27:31.865Z,0.00
2018-10-05T02:28:31.773Z,0.00
2018-10-05T02:29:31.760Z,0.00
2018-10-05T02:30:31.761Z,0.00
2018-10-05T02:31:31.738Z,0.00
2018-10-05T02:32:31.748Z,0.00
2018-10-05T02:33:31.723Z,0.00
2018-10-05T02:34:31.713Z,0.00
2018-10-05T02:35:31.716Z,0.00
2018-10-05T02:36:31.691Z,0.00
2018-10-05T02:37:31.697Z,0.00
2018-10-05T02:38:31.667Z,0.00
2018-10-05T02:39:31.656Z,0.00
2018-10-05T02:40:31.708Z,0.00
2018-10-05T02:41:31.656Z,0.00
2018-10-05T02:42:31.629Z,0.00
2018-10-05T02:43:31.621Z,0.00
2018-10-05T02:44:31.599Z,0.00
2018-10-05T02:45:31.616Z,0.00
2018-10-05T02:46:31.768Z,0.00
2018-10-05T02:47:31.574Z,0.00
2018-10-05T02:48:31.571Z,0.00
2018-10-05T02:49:31.549Z,0.00
2018-10-05T02:50:31.538Z,0.00
2018-10-05T02:51:31.532Z,0.00
2018-10-05T02:52:31.516Z,0.00
2018-10-05T02:53:31.511Z,0.00
2018-10-05T02:54:31.499Z,0.00
2018-10-05T02:55:31.505Z,0.00
2018-10-05T02:56:31.499Z,0.00
2018-10-05T02:57:31.472Z,0.00
2018-10-05T02:58:31.460Z,0.00
2018-10-05T02:59:31.462Z,0.00
2018-10-05T03:00:31.453Z,0.00
2018-10-05T03:01:31.452Z,0.00
2018-10-05T03:02:31.452Z,0.00
2018-10-05T03:03:31.401Z,0.00
2018-10-05T03:04:31.390Z,0.00
2018-10-05T03:05:31.381Z,0.00
2018-10-05T03:06:31.375Z,0.00
2018-10-05T03:07:31.362Z,0.00
2018-10-05T03:08:31.371Z,0.00
2018-10-05T03:09:31.332Z,0.00
2018-10-05T03:10:31.327Z,0.00
2018-10-05T03:11:31.319Z,0.00
2018-10-05T03:12:31.362Z,0.00
2018-10-05T03:13:31.299Z,0.00
2018-10-05T03:14:31.281Z,0.00
2018-10-05T03:15:31.301Z,0.00
2018-10-05T03:16:31.260Z,0.00
2018-10-05T03:17:31.262Z,0.00
2018-10-05T03:18:31.248Z,0.00
2018-10-05T03:19:31.226Z,0.00
2018-10-05T03:20:31.240Z,0.00
2018-10-05T03:21:31.205Z,0.00
2018-10-05T03:22:31.224Z,0.00
2018-10-05T03:23:31.191Z,0.00
2018-10-05T03:24:31.172Z,0.00
2018-10-05T03:25:31.175Z,0.00
2018-10-05T03:26:31.157Z,0.00
2018-10-05T03:27:31.142Z,0.00
2018-10-05T03:28:31.150Z,0.00
2018-10-05T03:29:31.118Z,0.00
2018-10-05T03:30:31.148Z,0.00
2018-10-05T03:31:31.121Z,0.00
2018-10-05T03:32:31.089Z,0.00
2018-10-05T03:33:31.089Z,0.00
2018-10-05T03:34:31.092Z,0.00
2018-10-05T03:35:31.058Z,0.00
2018-10-05T03:36:31.056Z,0.00
2018-10-05T03:37:31.031Z,0.00
2018-10-05T03:38:31.029Z,0.00
2018-10-05T03:39:31.037Z,0.00
2018-10-05T03:40:31.016Z,0.00
2018-10-05T03:41:31.008Z,0.00
2018-10-05T03:42:30.980Z,0.00
2018-10-05T03:43:30.972Z,0.00
2018-10-05T03:44:30.964Z,0.00
2018-10-05T03:45:31.007Z,0.00
2018-10-05T03:46:30.937Z,0.00
2018-10-05T03:47:30.927Z,0.00
2018-10-05T03:48:30.914Z,0.00
2018-10-05T03:49:30.925Z,0.00
2018-10-05T03:50:30.945Z,0.00
2018-10-05T03:51:30.891Z,0.00
2018-10-05T03:52:31.735Z,0.00
2018-10-05T03:53:30.908Z,0.00
2018-10-05T03:54:30.855Z,0.00
2018-10-05T03:55:30.845Z,0.00
2018-10-05T03:56:30.836Z,0.00
2018-10-05T03:57:30.836Z,0.00
2018-10-05T03:58:30.816Z,0.00
2018-10-05T03:59:30.806Z,0.00
2018-10-05T04:00:30.796Z,0.00
2018-10-05T04:01:30.778Z,0.00
2018-10-05T04:02:30.783Z,0.00
2018-10-05T04:03:30.759Z,0.00
2018-10-05T04:04:30.757Z,0.00
2018-10-05T04:05:30.756Z,0.00
2018-10-05T04:06:30.721Z,0.00
2018-10-05T04:07:30.724Z,0.00
2018-10-05T04:08:30.729Z,0.00
2018-10-05T04:09:30.745Z,0.00
2018-10-05T04:10:30.686Z,0.00
2018-10-05T04:11:30.697Z,0.00
2018-10-05T04:12:30.666Z,0.00
2018-10-05T04:13:30.658Z,0.00
2018-10-05T04:14:30.639Z,0.00
2018-10-05T04:15:30.624Z,0.00
2018-10-05T04:16:30.628Z,0.00
2018-10-05T04:17:30.625Z,0.00
2018-10-05T04:18:30.605Z,0.00
2018-10-05T04:19:30.587Z,0.00
2018-10-05T04:20:30.599Z,0.00
2018-10-05T04:21:30.593Z,0.00
2018-10-05T04:22:30.557Z,0.00
2018-10-05T04:23:30.540Z,0.00
2018-10-05T04:24:30.538Z,0.00
2018-10-05T04:25:30.522Z,0.00
2018-10-05T04:26:30.514Z,0.00
2018-10-05T04:27:30.541Z,0.00
2018-10-05T04:28:30.499Z,0.00
2018-10-05T04:29:30.487Z,0.00
2018-10-05T04:30:30.484Z,0.00
2018-10-05T04:31:30.477Z,0.00
2018-10-05T04:32:30.456Z,0.00
2018-10-05T04:33:30.473Z,0.00
2018-10-05T04:34:30.440Z,0.00
2018-10-05T04:35:30.466Z,0.00
2018-10-05T04:36:30.406Z,0.00
2018-10-05T04:37:30.412Z,0.00
2018-10-05T04:38:30.401Z,0.00
2018-10-05T04:39:30.373Z,0.00
2018-10-05T04:40:30.392Z,0.00
2018-10-05T04:41:30.350Z,0.00
2018-10-05T04:42:30.346Z,0.00
2018-10-05T04:43:30.334Z,0.00
2018-10-05T04:44:30.318Z,0.00
2018-10-05T04:45:30.314Z,0.00
2018-10-05T04:46:30.294Z,0.00
2018-10-05T04:47:30.289Z,0.00
2018-10-05T04:48:30.283Z,0.00
2018-10-05T04:49:30.313Z,0.00
2018-10-05T04:50:30.260Z,0.00
2018-10-05T04:51:30.250Z,0.00
2018-10-05T04:52:30.230Z,0.00
2018-10-05T04:53:30.235Z,0.00
2018-10-05T04:54:30.215Z,4.00
2018-10-05T04:55:30.217Z,0.00
2018-10-05T04:56:30.238Z,4.00
2018-10-05T04:57:30.176Z,4.00
2018-10-05T04:58:30.169Z,4.00
2018-10-05T04:59:30.173Z,4.00
2018-10-05T05:00:30.145Z,8.00
2018-10-05T05:01:30.160Z,8.00
2018-10-05T05:02:30.133Z,12.00
2018-10-05T05:03:30.113Z,8.00
2018-10-05T05:04:30.115Z,12.00
2018-10-05T05:05:30.116Z,12.00
2018-10-05T05:06:30.089Z,20.00
2018-10-05T05:07:30.077Z,20.00
2018-10-05T05:08:30.065Z,24.00
2018-10-05T05:09:30.065Z,28.00
2018-10-05T05:10:30.040Z,32.00
2018-10-05T05:11:30.039Z,36.00
2018-10-05T05:12:30.015Z,44.00
2018-10-05T05:13:30.013Z,48.00
2018-10-05T05:14:29.997Z,56.00
2018-10-05T05:15:29.983Z,68.00
2018-10-05T05:16:29.974Z,72.00
2018-10-05T05:17:29.964Z,80.00
2018-10-05T05:18:29.957Z,92.00
2018-10-05T05:19:29.946Z,104.00
2018-10-05T05:20:29.931Z,112.00
2018-10-05T05:21:29.951Z,120.00
2018-10-05T05:22:29.912Z,132.00
2018-10-05T05:23:29.907Z,144.00
2018-10-05T05:24:29.887Z,160.00
2018-10-05T05:25:29.887Z,168.00
2018-10-05T05:26:29.874Z,184.00
2018-10-05T05:27:29.860Z,192.00
2018-10-05T05:28:29.896Z,208.00
2018-10-05T05:29:29.848Z,220.00
2018-10-05T05:30:29.824Z,236.00
2018-10-05T05:31:29.822Z,248.00
2018-10-05T05:32:29.835Z,264.00
2018-10-05T05:33:29.827Z,272.00
2018-10-05T05:34:29.837Z,288.00
2018-10-05T05:35:29.780Z,304.00
2018-10-05T05:36:29.766Z,316.00
2018-10-05T05:37:29.752Z,328.00
2018-10-05T05:38:29.745Z,344.00
2018-10-05T05:39:29.748Z,360.00
2018-10-05T05:40:29.732Z,368.00
2018-10-05T05:41:29.706Z,384.00
2018-10-05T05:42:29.699Z,396.00
2018-10-05T05:43:29.693Z,412.00
2018-10-05T05:44:29.719Z,424.00
2018-10-05T05:45:29.664Z,440.00
2018-10-05T05:46:29.667Z,452.00
2018-10-05T05:47:29.669Z,464.00
2018-10-05T05:48:29.634Z,476.00
2018-10-05T05:49:29.639Z,488.00
2018-10-05T05:50:29.627Z,496.00
2018-10-05T05:51:29.607Z,508.00
2018-10-05T05:52:29.607Z,520.00
2018-10-05T05:53:29.579Z,532.00
2018-10-05T05:54:29.626Z,548.00
2018-10-05T05:55:29.585Z,560.00
2018-10-05T05:56:29.551Z,572.00
2018-10-05T05:57:29.551Z,580.00
2018-10-05T05:58:29.529Z,592.00
2018-10-05T05:59:29.522Z,596.00
2018-10-05T06:00:29.526Z,608.00
2018-10-05T06:01:29.502Z,616.00
2018-10-05T06:02:29.484Z,628.00
2018-10-05T06:03:29.482Z,636.00
2018-10-05T06:04:29.467Z,648.00
2018-10-05T06:05:29.452Z,660.00
2018-10-05T06:06:29.453Z,664.00
2018-10-05T06:07:29.431Z,676.00
2018-10-05T06:08:29.424Z,688.00
2018-10-05T06:09:29.423Z,696.00
2018-10-05T06:10:29.399Z,708.00
2018-10-05T06:11:29.398Z,716.00
2018-10-05T06:12:29.385Z,728.00
2018-10-05T06:13:29.389Z,732.00
2018-10-05T06:14:29.366Z,736.00
2018-10-05T06:15:29.362Z,748.00
2018-10-05T06:16:29.398Z,752.00
2018-10-05T06:17:29.323Z,756.00
2018-10-05T06:18:29.317Z,764.00
2018-10-05T06:19:29.322Z,768.00
2018-10-05T06:20:29.299Z,776.00
2018-10-05T06:21:29.378Z,784.00
2018-10-05T06:22:29.447Z,796.00
2018-10-05T06:23:29.267Z,800.00
2018-10-05T06:24:29.260Z,808.00
2018-10-05T06:25:29.241Z,812.00
2018-10-05T06:26:29.234Z,820.00
2018-10-05T06:27:29.296Z,828.00
2018-10-05T06:28:29.214Z,836.00
2018-10-05T06:29:29.203Z,844.00
2018-10-05T06:30:29.253Z,848.00
2018-10-05T06:31:29.203Z,856.00
2018-10-05T06:32:29.234Z,864.00
2018-10-05T06:33:29.185Z,872.00
2018-10-05T06:34:29.165Z,876.00
2018-10-05T06:35:29.203Z,880.00
2018-10-05T06:36:29.152Z,892.00
2018-10-05T06:37:29.139Z,896.00
2018-10-05T06:38:29.152Z,904.00
2018-10-05T06:39:29.090Z,912.00
2018-10-05T06:40:29.114Z,920.00
2018-10-05T06:41:29.080Z,920.00
2018-10-05T06:42:29.092Z,928.00
2018-10-05T06:43:29.051Z,932.00
2018-10-05T06:44:29.073Z,940.00
2018-10-05T06:45:29.023Z,944.00
2018-10-05T06:46:29.079Z,952.00
2018-10-05T06:47:29.025Z,956.00
2018-10-05T06:48:29.054Z,964.00
2018-10-05T06:49:29.007Z,968.00
2018-10-05T06:50:29.007Z,972.00
2018-10-05T06:51:29.021Z,976.00
2018-10-05T06:52:29.019Z,980.00
2018-10-05T06:53:29.002Z,988.00
2018-10-05T06:54:28.993Z,996.00
2018-10-05T06:55:28.980Z,996.00
2018-10-05T06:56:28.927Z,1004.00
2018-10-05T06:57:28.916Z,1008.00
2018-10-05T06:58:28.948Z,1016.00
2018-10-05T06:59:28.957Z,1024.00
2018-10-05T07:00:28.902Z,1032.00
2018-10-05T07:01:28.956Z,1036.00
2018-10-05T07:02:28.873Z,1044.00
2018-10-05T07:03:28.859Z,1052.00
2018-10-05T07:04:28.886Z,1064.00
2018-10-05T07:05:28.829Z,1072.00
2018-10-05T07:06:28.840Z,1080.00
2018-10-05T07:07:28.898Z,1084.00
2018-10-05T07:08:28.804Z,1096.00
2018-10-05T07:09:28.802Z,1108.00
2018-10-05T07:10:28.767Z,1120.00
2018-10-05T07:11:28.804Z,1128.00
2018-10-05T07:12:28.767Z,1140.00
2018-10-05T07:13:28.753Z,1144.00
2018-10-05T07:14:28.739Z,1152.00
2018-10-05T07:15:28.746Z,1164.00
2018-10-05T07:16:28.736Z,1164.00
2018-10-05T07:17:28.704Z,1172.00
2018-10-05T07:18:28.678Z,1176.00
2018-10-05T07:19:28.702Z,1184.00
2018-10-05T07:20:28.715Z,1188.00
2018-10-05T07:21:28.795Z,1192.00
2018-10-05T07:22:28.706Z,1200.00
2018-10-05T07:23:28.657Z,1208.00
2018-10-05T07:24:28.605Z,1208.00
2018-10-05T07:25:28.633Z,1216.00
2018-10-05T07:26:28.595Z,1228.00
2018-10-05T07:27:28.577Z,1232.00
2018-10-05T07:28:28.665Z,1240.00
2018-10-05T07:29:28.575Z,1252.00
2018-10-05T07:30:28.600Z,1256.00
2018-10-05T07:31:28.548Z,1260.00
2018-10-05T07:32:28.532Z,1264.00
2018-10-05T07:33:28.634Z,1272.00
2018-10-05T07:34:28.501Z,1276.00
2018-10-05T07:35:28.495Z,1280.00
2018-10-05T07:36:28.514Z,1284.00
2018-10-05T07:37:28.595Z,1288.00
2018-10-05T07:38:28.459Z,1296.00
2018-10-05T07:39:28.450Z,1304.00
2018-10-05T07:40:28.442Z,1312.00
2018-10-05T07:41:28.449Z,1320.00
2018-10-05T07:42:28.440Z,1328.00
2018-10-05T07:43:28.408Z,1340.00
2018-10-05T07:44:28.419Z,1356.00
2018-10-05T07:45:28.385Z,1372.00
2018-10-05T07:46:28.375Z,1384.00
2018-10-05T07:47:28.379Z,1392.00
2018-10-05T07:48:28.351Z,1404.00
2018-10-05T07:49:28.341Z,1412.00
2018-10-05T07:50:28.359Z,1428.00
2018-10-05T07:51:28.328Z,1444.00
2018-10-05T07:52:28.338Z,1444.00
2018-10-05T07:53:28.299Z,1448.00
2018-10-05T07:54:28.289Z,1460.00
2018-10-05T07:55:28.281Z,1460.00
2018-10-05T07:56:28.304Z,1464.00
2018-10-05T07:57:28.336Z,1484.00
2018-10-05T07:58:28.253Z,1496.00
2018-10-05T07:59:28.233Z,1496.00
2018-10-05T08:00:28.226Z,1512.00
2018-10-05T08:01:28.222Z,1536.00
2018-10-05T08:02:28.210Z,1556.00
2018-10-05T08:03:28.224Z,1564.00
2018-10-05T08:04:28.198Z,1568.00
2018-10-05T08:05:28.191Z,1580.00
2018-10-05T08:06:28.174Z,1584.00
2018-10-05T08:07:28.176Z,1572.00
2018-10-05T08:08:28.165Z,1580.00
2018-10-05T08:09:28.192Z,1592.00
2018-10-05T08:10:28.708Z,1588.00
2018-10-05T08:11:28.117Z,1588.00
2018-10-05T08:12:28.108Z,1600.00
2018-10-05T08:13:28.119Z,1592.00
2018-10-05T08:14:28.074Z,1588.00
2018-10-05T08:15:28.068Z,1580.00
2018-10-05T08:16:28.056Z,1580.00
2018-10-05T08:17:28.047Z,1576.00
2018-10-05T08:18:28.048Z,1576.00
2018-10-05T08:19:28.034Z,1572.00
2018-10-05T08:20:28.016Z,1580.00
2018-10-05T08:21:28.057Z,1588.00
2018-10-05T08:22:27.988Z,1604.00
2018-10-05T08:23:27.988Z,1604.00
2018-10-05T08:24:27.979Z,1612.00
2018-10-05T08:25:27.952Z,1616.00
2018-10-05T08:26:27.945Z,1624.00
2018-10-05T08:27:27.973Z,1628.00
2018-10-05T08:28:27.923Z,1644.00
2018-10-05T08:29:27.947Z,1656.00
2018-10-05T08:30:27.913Z,1660.00
2018-10-05T08:31:27.891Z,1664.00
2018-10-05T08:32:27.879Z,1680.00
2018-10-05T08:33:27.877Z,1700.00
2018-10-05T08:34:27.943Z,1700.00
2018-10-05T08:35:27.854Z,1708.00
2018-10-05T08:36:27.843Z,1716.00
2018-10-05T08:37:27.823Z,1724.00
2018-10-05T08:38:27.816Z,1736.00
2018-10-05T08:39:27.815Z,1748.00
2018-10-05T08:40:27.834Z,1748.00
2018-10-05T08:41:27.783Z,1748.00
2018-10-05T08:42:27.776Z,1736.00
2018-10-05T08:43:27.760Z,1740.00
2018-10-05T08:44:27.752Z,1752.00
2018-10-05T08:45:27.749Z,1756.00
2018-10-05T08:46:27.728Z,1772.00
2018-10-05T08:47:27.713Z,1796.00
2018-10-05T08:48:27.706Z,1804.00
2018-10-05T08:49:27.708Z,1812.00
2018-10-05T08:50:27.687Z,1820.00
2018-10-05T08:51:27.718Z,1828.00
2018-10-05T08:52:27.664Z,1824.00
2018-10-05T08:53:27.654Z,1820.00
2018-10-05T08:54:27.649Z,1856.00
2018-10-05T08:55:27.630Z,1880.00
2018-10-05T08:56:27.634Z,1888.00
2018-10-05T08:57:27.610Z,1896.00
2018-10-05T08:58:27.647Z,1912.00
2018-10-05T08:59:27.644Z,1948.00
2018-10-05T09:00:27.673Z,1980.00
2018-10-05T09:01:27.639Z,2012.00
2018-10-05T09:02:27.641Z,2024.00
2018-10-05T09:03:27.589Z,2028.00
2018-10-05T09:04:27.599Z,2040.00
2018-10-05T09:05:27.553Z,2056.00
2018-10-05T09:06:27.603Z,2072.00
2018-10-05T09:07:27.557Z,2080.00
2018-10-05T09:08:27.562Z,2108.00
2018-10-05T09:09:27.520Z,2116.00
2018-10-05T09:10:27.493Z,2140.00
2018-10-05T09:11:27.676Z,2160.00
2018-10-05T09:12:27.460Z,2200.00
2018-10-05T09:13:27.438Z,2248.00
2018-10-05T09:14:27.425Z,2300.00
2018-10-05T09:15:27.418Z,2344.00
2018-10-05T09:16:27.425Z,2364.00
2018-10-05T09:17:27.415Z,2352.00
2018-10-05T09:18:27.392Z,2368.00
2018-10-05T09:19:27.377Z,2408.00
2018-10-05T09:20:27.368Z,2440.00
2018-10-05T09:21:27.350Z,2460.00
2018-10-05T09:22:27.417Z,2460.00
2018-10-05T09:23:27.343Z,2484.00
2018-10-05T09:24:27.318Z,2496.00
2018-10-05T09:25:27.308Z,2504.00
2018-10-05T09:26:27.301Z,2520.00
2018-10-05T09:27:27.285Z,2544.00
2018-10-05T09:28:27.286Z,2568.00
2018-10-05T09:29:27.267Z,2600.00
2018-10-05T09:30:27.280Z,2616.00
2018-10-05T09:31:27.246Z,2632.00
2018-10-05T09:32:27.231Z,2660.00
2018-10-05T09:33:27.234Z,2676.00
2018-10-05T09:34:27.219Z,2704.00
2018-10-05T09:35:27.200Z,2740.00
2018-10-05T09:36:27.199Z,2800.00
2018-10-05T09:37:27.277Z,2860.00
2018-10-05T09:38:27.184Z,2896.00
2018-10-05T09:39:27.160Z,2920.00
2018-10-05T09:40:27.147Z,2968.00
2018-10-05T09:41:27.139Z,3024.00
2018-10-05T09:42:27.124Z,3064.00
2018-10-05T09:43:27.217Z,3100.00
2018-10-05T09:44:27.159Z,3124.00
2018-10-05T09:45:27.231Z,3168.00
2018-10-05T09:46:27.147Z,3232.00
2018-10-05T09:47:27.211Z,3268.00
2018-10-05T09:48:27.735Z,3316.00
2018-10-05T09:49:27.085Z,3368.00
2018-10-05T09:50:27.055Z,3416.00
2018-10-05T09:51:27.136Z,3460.00
2018-10-05T09:52:27.147Z,3496.00
2018-10-05T09:53:27.012Z,3552.00
2018-10-05T09:54:27.051Z,3588.00
2018-10-05T09:55:27.020Z,3632.00
2018-10-05T09:56:26.982Z,3668.00
2018-10-05T09:57:27.061Z,3712.00
2018-10-05T09:58:27.038Z,3764.00
2018-10-05T09:59:26.945Z,3816.00
2018-10-05T10:00:26.949Z,3800.00
2018-10-05T10:01:26.929Z,4204.00
2018-10-05T10:02:26.917Z,7760.00
2018-10-05T10:03:26.951Z,13452.00
2018-10-05T10:04:26.891Z,18272.00
2018-10-05T10:05:26.885Z,21056.00
2018-10-05T10:06:26.886Z,22176.00
2018-10-05T10:07:26.858Z,22816.00
2018-10-05T10:08:26.893Z,23008.00
2018-10-05T10:09:26.841Z,23264.00
2018-10-05T10:10:26.848Z,24480.00
2018-10-05T10:11:26.815Z,25856.00
2018-10-05T10:12:26.804Z,26528.00
2018-10-05T10:13:26.795Z,26400.00
2018-10-05T10:14:26.781Z,26528.00
2018-10-05T10:15:26.782Z,28096.00
2018-10-05T10:16:26.766Z,29280.00
2018-10-05T10:17:26.757Z,30048.00
2018-10-05T10:18:26.738Z,31680.00
2018-10-05T10:19:26.731Z,33248.00
2018-10-05T10:20:26.722Z,34240.00
2018-10-05T10:21:26.757Z,35264.00
2018-10-05T10:22:26.702Z,38080.00
2018-10-05T10:23:26.689Z,41472.00
2018-10-05T10:24:26.686Z,44192.00
2018-10-05T10:25:26.670Z,46944.00
2018-10-05T10:26:26.666Z,51904.00
2018-10-05T10:27:26.680Z,58048.00
2018-10-05T10:28:26.744Z,63744.00
2018-10-05T10:29:26.637Z,70400.00
2018-10-05T10:30:26.617Z,75232.00
2018-10-05T10:31:26.760Z,80928.00
2018-10-05T10:32:26.595Z,83712.00
2018-10-05T10:33:26.631Z,86432.00
2018-10-05T10:34:26.618Z,89504.00
2018-10-05T10:35:26.563Z,94240.00
2018-10-05T10:36:26.559Z,97984.00
2018-10-05T10:37:26.553Z,102400.00
2018-10-05T10:38:26.543Z,105312.00
2018-10-05T10:39:26.527Z,108256.00
2018-10-05T10:40:26.515Z,121216.00
2018-10-05T10:41:26.507Z,139776.00
2018-10-05T10:42:26.512Z,160768.00
2018-10-05T10:43:26.487Z,180128.00
2018-10-05T10:44:26.476Z,196960.00
2018-10-05T10:45:26.467Z,208384.00
2018-10-05T10:46:26.457Z,208384.00
2018-10-05T10:47:26.467Z,196960.00
2018-10-05T10:48:26.433Z,192544.00
2018-10-05T10:49:26.424Z,192704.00
2018-10-05T10:50:26.419Z,188672.00
2018-10-05T10:51:26.411Z,193888.00
2018-10-05T10:52:26.395Z,182560.00
2018-10-05T10:53:26.397Z,174656.00
2018-10-05T10:54:26.379Z,159456.00
2018-10-05T10:55:26.367Z,150528.00
2018-10-05T10:56:26.356Z,141248.00
2018-10-05T10:57:26.349Z,132736.00
2018-10-05T10:58:26.344Z,127488.00
2018-10-05T10:59:26.327Z,121440.00
2018-10-05T11:00:26.321Z,116192.00
2018-10-05T11:01:26.309Z,112736.00
2018-10-05T11:02:26.299Z,110336.00
2018-10-05T11:03:26.312Z,106208.00
2018-10-05T11:04:26.372Z,98240.00
2018-10-05T11:05:26.266Z,90592.00
2018-10-05T11:06:26.256Z,81408.00
2018-10-05T11:07:26.245Z,73760.00
2018-10-05T11:08:26.251Z,65952.00
2018-10-05T11:09:26.237Z,61216.00
2018-10-05T11:10:26.220Z,57632.00
2018-10-05T11:11:26.222Z,53632.00
2018-10-05T11:12:26.199Z,50752.00
2018-10-05T11:13:26.189Z,47488.00
2018-10-05T11:14:26.182Z,44032.00
2018-10-05T11:15:26.167Z,42144.00
2018-10-05T11:16:26.157Z,40864.00
2018-10-05T11:17:26.158Z,39136.00
2018-10-05T11:18:26.140Z,37536.00
2018-10-05T11:19:26.162Z,36864.00
2018-10-05T11:20:26.141Z,35808.00
2018-10-05T11:21:26.109Z,35360.00
2018-10-05T11:22:26.101Z,34592.00
2018-10-05T11:23:26.094Z,34176.00
2018-10-05T11:24:26.096Z,33600.00
2018-10-05T11:25:26.080Z,33248.00
2018-10-05T11:26:26.065Z,32896.00
2018-10-05T11:27:26.052Z,32352.00
2018-10-05T11:28:26.041Z,31904.00
2018-10-05T11:29:26.036Z,31456.00
2018-10-05T11:30:26.055Z,30688.00
2018-10-05T11:31:26.015Z,30464.00
2018-10-05T11:32:26.007Z,30240.00
2018-10-05T11:33:25.995Z,29824.00
2018-10-05T11:34:25.980Z,29728.00
2018-10-05T11:35:25.993Z,29824.00
2018-10-05T11:36:25.964Z,29984.00
2018-10-05T11:37:25.951Z,29984.00
2018-10-05T11:38:25.955Z,29984.00
2018-10-05T11:39:25.943Z,29856.00
2018-10-05T11:40:25.923Z,29792.00
2018-10-05T11:41:25.921Z,29344.00
2018-10-05T11:42:25.907Z,29056.00
2018-10-05T11:43:25.901Z,28928.00
2018-10-05T11:44:25.891Z,28800.00
2018-10-05T11:45:25.891Z,28608.00
2018-10-05T11:46:25.950Z,28288.00
2018-10-05T11:47:25.855Z,28480.00
2018-10-05T11:48:25.868Z,28416.00
2018-10-05T11:49:25.839Z,28480.00
2018-10-05T11:50:25.837Z,28352.00
2018-10-05T11:51:25.834Z,28320.00
2018-10-05T11:52:25.851Z,28288.00
2018-10-05T11:53:25.799Z,28288.00
2018-10-05T11:54:25.788Z,28352.00
2018-10-05T11:55:25.787Z,28320.00
2018-10-05T11:56:25.776Z,28192.00
2018-10-05T11:57:25.778Z,28192.00
2018-10-05T11:58:25.753Z,28224.00
2018-10-05T11:59:25.744Z,28128.00
2018-10-05T12:00:25.732Z,28064.00
2018-10-05T12:01:25.721Z,28064.00
2018-10-05T12:02:25.784Z,28032.00
2018-10-05T12:03:25.714Z,27904.00
2018-10-05T12:04:25.702Z,27776.00
2018-10-05T12:05:25.687Z,27744.00
2018-10-05T12:06:25.676Z,27680.00
2018-10-05T12:07:25.687Z,27744.00
2018-10-05T12:08:25.660Z,27552.00
2018-10-05T12:09:25.664Z,27584.00
2018-10-05T12:10:25.636Z,27552.00
2018-10-05T12:11:25.625Z,27488.00
2018-10-05T12:12:25.626Z,27424.00
2018-10-05T12:13:25.628Z,27264.00
2018-10-05T12:14:25.651Z,27296.00
2018-10-05T12:15:25.594Z,27200.00
2018-10-05T12:16:25.585Z,27104.00
2018-10-05T12:17:25.590Z,27072.00
2018-10-05T12:18:25.576Z,26976.00
2018-10-05T12:19:25.554Z,26976.00
2018-10-05T12:20:25.545Z,26976.00
2018-10-05T12:21:25.537Z,26816.00
2018-10-05T12:22:25.541Z,26656.00
2018-10-05T12:23:25.557Z,26656.00
2018-10-05T12:24:25.505Z,26624.00
2018-10-05T12:25:25.500Z,26656.00
2018-10-05T12:26:25.540Z,26528.00
2018-10-05T12:27:25.475Z,26624.00
2018-10-05T12:28:25.466Z,26784.00
2018-10-05T12:29:25.461Z,26912.00
2018-10-05T12:30:25.448Z,26944.00
2018-10-05T12:31:25.436Z,26976.00